Latest Weather Observations for Latrobe Valley

IDV60801

Issued at 1:32 pm EDT Saturday 23 March 2019 (issued every 10 minutes, with the page automatically refreshed every 10 minutes)

About weather observations | Map of weather stations | Latest weather observations for VIC | Other Formats
Station Details ID: 085280 Name: LATROBE VALLEY AIRPORT Lat: -38.21 Lon: 146.47 Height: 55.7 m
Data from the previous 72 hours. | See also: Recent months at Latrobe Valley
Date/Time
EDT
Temp
°C
App
Temp
°C
Dew
Point
°C
Rel
Hum
%
Delta-T
°C
Wind Press
QNH
hPa
Press
MSL
hPa
Rain since
9am
mm
Dir  Spd
km/h
Gust
km/h
Spd
kts
Gust
kts
23/01:30pm 20.6 21.1 17.4 82 2.0 E 11 15 6 8 1008.9 1008.8 0.4
23/01:00pm 20.5 22.0 17.7 84 1.7 ENE 6 9 3 5 1009.8 1009.7 0.4
23/12:30pm 20.0 22.5 18.1 89 1.2 SSE 2 6 1 3 1010.3 1010.2 0.4
23/12:00pm 19.5 22.3 18.0 91 0.9 CALM 0 0 0 0 1010.7 1010.6 0.4
23/11:30am 19.1 20.1 17.8 92 0.8 ENE 9 13 5 7 1010.7 1010.6 0.4
23/11:00am 18.9 21.2 17.6 92 0.8 SE 2 6 1 3 1011.1 1011.0 0.4
23/10:30am 18.8 20.3 17.6 93 0.7 S 6 9 3 5 1011.4 1011.3 0.2
23/10:26am 18.9 20.4 17.7 93 0.7 SSW 6 9 3 5 1011.5 1011.4 0.2
23/10:00am 18.7 21.3 17.5 93 0.7 CALM 0 0 0 0 1011.7 1011.6 0.0
23/09:30am 18.2 19.5 17.2 94 0.6 NE 6 11 3 6 1011.0 1010.9 0.0
23/09:00am 18.0 18.3 17.0 94 0.6 ENE 11 19 6 10 1010.2 1010.1 0.0
23/08:30am 17.9 17.8 16.9 94 0.6 ENE 13 20 7 11 1010.0 1009.9 0.0
23/08:00am 17.7 17.5 16.7 94 0.6 ENE 13 20 7 11 1010.1 1010.0 0.0
23/07:45am 17.7 17.1 16.7 94 0.6 E 15 20 8 11 1009.9 1009.8 0.0
23/07:30am 17.7 17.1 16.7 94 0.6 E 15 26 8 14 1010.0 1009.9 0.0
23/07:00am 17.8 17.3 16.8 94 0.6 ENE 15 24 8 13 1010.4 1010.3 0.0
23/06:30am 17.9 16.6 16.9 94 0.6 ENE 19 26 10 14 1010.1 1010.0 0.0
23/06:02am 17.9 17.4 16.9 94 0.6 E 15 20 8 11 1010.2 1010.1 0.0
23/06:00am 17.9 17.4 16.9 94 0.6 E 15 20 8 11 1010.2 1010.1 0.0
23/05:30am 17.8 17.3 16.8 94 0.6 E 15 20 8 11 1010.7 1010.6 0.0
23/05:00am 17.9 17.0 16.9 94 0.6 E 17 24 9 13 1010.6 1010.5 0.0
23/04:47am 17.9 17.4 16.9 94 0.6 ENE 15 22 8 12 1010.7 1010.6 0.0
23/04:35am 17.9 17.0 16.9 94 0.6 E 17 24 9 13 1010.6 1010.5 0.0
23/04:30am 17.9 17.0 16.9 94 0.6 E 17 24 9 13 1010.6 1010.5 0.0
23/04:00am 18.0 17.9 17.0 94 0.6 ENE 13 22 7 12 1011.4 1011.3 0.0
23/03:30am 18.1 17.7 17.1 94 0.6 ENE 15 22 8 12 1011.7 1011.6 0.0
23/03:00am 18.2 17.4 17.2 94 0.6 E 17 24 9 13 1012.2 1012.1 0.0
23/02:47am 18.2 18.2 17.2 94 0.6 ENE 13 19 7 10 1012.7 1012.6 0.0
23/02:46am 18.2 18.2 17.2 94 0.6 ENE 13 19 7 10 1012.8 1012.7 0.0
23/02:30am 18.2 17.8 17.2 94 0.6 E 15 20 8 11 1012.6 1012.5 0.0
23/02:00am 18.4 18.0 17.2 93 0.7 E 15 24 8 13 1012.8 1012.7 0.0
23/01:30am 18.5 18.5 17.3 93 0.7 ENE 13 20 7 11 1013.5 1013.3 0.0
23/01:00am 18.7 18.4 17.4 92 0.8 ENE 15 24 8 13 1013.8 1013.6 0.0
23/12:30am 18.8 17.7 17.3 91 0.9 ENE 19 32 10 17 1014.0 1013.8 0.0
23/12:00am 19.3 19.0 17.4 89 1.2 ENE 15 26 8 14 1014.3 1014.1 0.0
 
Date/Time
EDT
Temp
°C
App
Temp
°C
Dew
Point
°C
Rel
Hum
%
Delta-T
°C
Wind Press
QNH
hPa
Press
MSL
hPa
Rain since
9am
mm
Dir  Spd
km/h
Gust
km/h
Spd
kts
Gust
kts
22/11:53pm 19.4 18.7 17.4 88 1.2 ENE 17 26 9 14 1014.3 1014.1 0.0
22/11:30pm 19.6 19.0 17.6 88 1.2 ENE 17 28 9 15 1014.4 1014.2 0.0
22/11:00pm 19.5 18.4 17.3 87 1.3 ENE 19 30 10 16 1014.4 1014.2 0.0
22/10:30pm 19.5 18.4 17.3 87 1.3 E 19 30 10 16 1014.7 1014.5 0.0
22/10:00pm 19.7 18.5 17.1 85 1.6 ENE 19 32 10 17 1015.0 1014.8 0.0
22/09:30pm 20.0 19.2 17.0 83 1.8 ENE 17 26 9 14 1015.2 1015.0 0.0
22/09:00pm 20.1 19.6 16.9 82 1.9 ENE 15 22 8 12 1014.9 1014.7 0.0
22/08:41pm 19.9 19.2 16.5 81 2.1 ENE 15 20 8 11 1014.8 1014.6 0.0
22/08:30pm 19.9 18.9 16.5 81 2.1 ENE 17 26 9 14 1014.7 1014.5 0.0
22/08:00pm 20.3 19.6 16.5 79 2.3 E 15 26 8 14 1014.3 1014.1 0.0
22/07:55pm 20.3 19.6 16.5 79 2.3 E 15 24 8 13 1014.3 1014.1 0.0
22/07:36pm 20.9 20.3 16.7 77 2.6 ENE 15 24 8 13 1014.5 1014.3 0.0
22/07:30pm 21.1 20.5 16.7 76 2.7 ENE 15 24 8 13 1014.5 1014.3 0.0
22/07:00pm 21.5 20.0 16.7 74 2.9 E 20 32 11 17 1014.1 1013.9 0.0
22/06:30pm 22.0 20.7 16.9 73 3.1 E 19 32 10 17 1014.1 1013.9 0.0
22/06:00pm 22.6 21.1 16.4 68 3.8 E 19 32 10 17 1014.1 1013.9 0.0
22/05:30pm 22.9 21.4 16.7 68 3.8 E 20 33 11 18 1013.7 1013.5 0.0
22/05:00pm 23.1 21.5 16.6 67 4.0 E 20 30 11 16 1013.7 1013.5 0.0
22/04:30pm 23.6 22.0 16.6 65 4.3 E 20 32 11 17 1013.9 1013.7 0.0
22/04:00pm 24.6 22.7 16.6 61 4.9 ENE 22 32 12 17 1013.9 1013.7 0.0
22/03:30pm 24.7 23.1 16.4 60 5.1 ENE 20 33 11 18 1014.2 1014.0 0.0
22/03:00pm 24.9 23.1 16.9 61 5.0 E 22 30 12 16 1014.5 1014.3 0.0
22/02:30pm 25.3 24.0 17.2 61 5.0 ENE 20 30 11 16 1014.8 1014.6 0.0
22/02:00pm 23.6 22.1 16.4 64 4.4 E 19 26 10 14 1015.4 1015.2 0.0
22/01:30pm 23.8 21.9 16.8 65 4.3 ENE 22 30 12 16 1015.8 1015.6 0.0
22/01:00pm 22.8 21.5 17.3 71 3.4 E 20 30 11 16 1015.8 1015.6 0.0
22/12:30pm 22.8 21.5 17.3 71 3.4 ENE 20 32 11 17 1016.3 1016.2 0.0
22/12:00pm 22.4 20.6 16.9 71 3.4 ENE 22 32 12 17 1016.6 1016.5 0.0
22/11:30am 21.8 20.4 17.0 74 2.9 ENE 20 35 11 19 1016.5 1016.4 0.0
22/11:04am 21.5 20.1 17.1 76 2.7 ENE 20 30 11 16 1016.6 1016.5 0.0
22/11:00am 21.4 19.6 17.0 76 2.7 NE 22 32 12 17 1016.6 1016.5 0.0
22/10:30am 21.2 20.0 17.4 79 2.3 ENE 20 32 11 17 1016.6 1016.5 0.0
22/10:00am 20.2 19.1 17.4 84 1.7 ENE 19 28 10 15 1016.9 1016.8 0.0
22/09:30am 19.7 19.1 17.5 87 1.3 ENE 17 28 9 15 1016.8 1016.7 0.0
22/09:00am 19.4 18.8 17.5 89 1.2 ENE 17 26 9 14 1016.8 1016.7 0.0
22/08:30am 19.2 19.0 17.5 90 1.0 ENE 15 22 8 12 1016.9 1016.8 0.0
22/08:00am 19.0 18.4 17.5 91 0.9 ENE 17 30 9 16 1016.8 1016.7 0.0
22/07:30am 18.7 17.9 17.2 91 0.9 ENE 17 26 9 14 1016.4 1016.3 0.0
22/07:03am 18.9 17.8 17.2 90 1.0 ENE 19 30 10 16 1016.3 1016.2 0.0
22/07:00am 18.9 18.1 17.2 90 1.0 ENE 17 30 9 16 1016.3 1016.2 0.0
22/06:30am 19.0 18.4 17.5 91 0.9 ENE 17 24 9 13 1016.1 1015.9 0.0
22/06:06am 18.7 18.0 17.4 92 0.8 E 17 32 9 17 1015.8 1015.6 0.0
22/06:00am 18.6 17.5 17.3 92 0.8 E 19 28 10 15 1015.9 1015.7 0.0
22/05:47am 18.6 17.9 17.3 92 0.8 E 17 33 9 18 1015.8 1015.6 0.0
22/05:30am 18.7 18.0 17.4 92 0.8 E 17 28 9 15 1015.8 1015.6 0.0
22/05:22am 18.6 17.9 17.3 92 0.8 E 17 28 9 15 1015.8 1015.6 0.0
22/05:00am 18.6 17.8 17.1 91 0.9 ENE 17 24 9 13 1015.8 1015.6 0.0
22/04:41am 18.8 18.5 17.3 91 0.9 ENE 15 28 8 15 1015.9 1015.7 0.0
22/04:30am 18.7 18.3 17.2 91 0.9 ENE 15 22 8 12 1015.9 1015.7 0.0
22/04:11am 18.6 17.9 17.3 92 0.8 ENE 17 26 9 14 1015.9 1015.7 0.0
22/04:00am 18.5 18.0 17.0 91 0.9 ENE 15 24 8 13 1016.0 1015.8 0.0
22/03:42am 18.5 18.0 17.0 91 0.9 ENE 15 20 8 11 1016.0 1015.8 0.0
22/03:30am 18.6 18.2 17.1 91 0.9 ENE 15 26 8 14 1016.1 1015.9 0.0
22/03:27am 18.5 17.7 17.0 91 0.9 ENE 17 26 9 14 1016.1 1015.9 0.0
22/03:05am 18.6 17.2 16.9 90 1.0 ENE 20 35 11 19 1016.1 1015.9 0.0
22/03:00am 18.8 17.6 17.1 90 1.0 ENE 19 28 10 15 1016.1 1015.9 0.0
22/02:30am 18.6 18.6 17.1 91 0.9 ENE 13 19 7 10 1016.4 1016.3 0.0
22/02:00am 18.4 17.5 16.9 91 0.9 ENE 17 24 9 13 1016.5 1016.4 0.0
22/01:30am 18.4 17.6 17.1 92 0.8 ENE 17 28 9 15 1016.8 1016.7 0.0
22/01:26am 18.3 17.5 17.0 92 0.8 ENE 17 28 9 15 1016.8 1016.7 0.0
22/01:00am 18.3 17.4 16.8 91 0.9 ENE 17 24 9 13 1016.9 1016.8 0.0
22/12:45am 18.5 18.0 16.8 90 1.0 ENE 15 24 8 13 1017.0 1016.9 0.0
22/12:42am 18.5 18.0 16.8 90 1.0 ENE 15 24 8 13 1017.0 1016.9 0.0
22/12:30am 18.5 17.5 16.7 89 1.1 ENE 17 26 9 14 1017.0 1016.9 0.0
22/12:22am 18.5 17.8 16.5 88 1.2 ENE 15 24 8 13 1017.1 1017.0 0.0
22/12:00am 18.6 17.9 16.4 87 1.3 E 15 20 8 11 1017.3 1017.2 0.0
 
Date/Time
EDT
Temp
°C
App
Temp
°C
Dew
Point
°C
Rel
Hum
%
Delta-T
°C
Wind Press
QNH
hPa
Press
MSL
hPa
Rain since
9am
mm
Dir  Spd
km/h
Gust
km/h
Spd
kts
Gust
kts
21/11:44pm 18.7 18.4 16.5 87 1.3 ENE 13 20 7 11 1017.5 1017.4 0.0
21/11:30pm 18.5 17.7 16.1 86 1.4 ENE 15 28 8 15 1017.6 1017.5 0.0
21/11:28pm 18.6 17.4 16.2 86 1.4 ENE 17 28 9 15 1017.6 1017.5 0.0
21/11:00pm 19.1 17.9 16.0 82 1.8 E 17 30 9 16 1017.7 1017.6 0.0
21/10:30pm 19.1 17.9 16.0 82 1.8 ENE 17 26 9 14 1017.9 1017.8 0.0
21/10:00pm 19.0 17.4 15.9 82 1.8 ENE 19 28 10 15 1017.9 1017.8 0.0
21/09:30pm 19.0 17.7 15.7 81 2.0 E 17 26 9 14 1017.7 1017.6 0.0
21/09:00pm 19.2 17.9 15.9 81 2.0 E 17 26 9 14 1017.6 1017.5 0.0
21/08:30pm 19.3 18.5 16.0 81 2.0 E 15 24 8 13 1017.4 1017.3 0.0
21/08:00pm 19.4 18.6 16.1 81 2.0 E 15 24 8 13 1017.1 1017.0 0.0
21/07:43pm 19.5 18.3 16.2 81 2.0 ESE 17 26 9 14 1016.8 1016.7 0.0
21/07:30pm 19.6 17.8 16.1 80 2.1 E 20 32 11 17 1016.8 1016.7 0.0
21/07:00pm 20.2 18.7 16.2 78 2.4 E 19 28 10 15 1016.5 1016.4 0.0
21/06:30pm 20.9 19.6 16.7 77 2.6 E 19 28 10 15 1016.4 1016.3 0.0
21/06:00pm 21.7 20.1 16.6 73 3.1 E 20 30 11 16 1016.0 1015.8 0.0
21/05:30pm 23.1 21.7 16.9 68 3.8 E 20 32 11 17 1015.8 1015.6 0.0
21/05:00pm 23.1 21.7 16.6 67 4.0 E 19 28 10 15 1015.8 1015.6 0.0
21/04:30pm 23.0 21.6 17.0 69 3.7 E 20 33 11 18 1015.8 1015.6 0.0
21/04:00pm 22.9 21.5 17.1 70 3.6 E 20 32 11 17 1015.7 1015.5 0.0
21/03:30pm 23.2 21.5 17.2 69 3.7 E 22 35 12 19 1015.7 1015.5 0.0
21/03:00pm 24.7 23.8 18.2 67 4.1 E 20 32 11 17 1015.9 1015.7 0.0
21/02:30pm 24.5 22.7 17.0 63 4.6 NE 22 35 12 19 1016.0 1015.8 0.0
21/02:00pm 24.1 21.9 16.9 64 4.4 NE 24 32 13 17 1016.3 1016.2 0.0
21/01:30pm 23.5 21.9 16.5 65 4.3 ENE 20 35 11 19 1016.6 1016.5 0.0
21/01:00pm 23.3 22.0 17.3 69 3.7 ENE 20 30 11 16 1016.9 1016.8 0.0
21/12:57pm 23.1 21.9 17.6 71 3.4 ENE 20 30 11 16 1017.0 1016.9 0.0
21/12:30pm 22.1 21.2 17.7 76 2.7 ENE 19 30 10 16 1017.2 1017.1 0.0
21/12:00pm 22.0 20.8 17.4 75 2.8 ENE 20 28 11 15 1017.3 1017.2 0.0
21/11:30am 22.3 21.8 17.7 75 2.9 ENE 17 28 9 15 1017.5 1017.4 0.0
21/11:00am 22.1 21.3 18.1 78 2.5 ENE 19 28 10 15 1017.5 1017.4 0.0
21/10:30am 20.3 20.3 19.0 92 0.8 ENE 17 24 9 13 1017.6 1017.5 0.0
21/10:19am 19.9 20.2 18.7 93 0.8 ENE 15 20 8 11 1017.6 1017.5 0.0
21/10:03am 19.2 19.5 18.0 93 0.7 ENE 13 20 7 11 1017.6 1017.5 0.0
21/10:00am 19.1 19.4 17.9 93 0.7 ENE 13 20 7 11 1017.6 1017.5 0.0
21/09:50am 19.0 18.6 18.0 94 0.6 ENE 17 22 9 12 1017.5 1017.4 0.0
21/09:30am 18.7 18.5 17.7 94 0.6 ENE 15 22 8 12 1017.3 1017.2 0.0
21/09:00am 18.5 18.3 17.5 94 0.6 ENE 15 24 8 13 1016.9 1016.8 0.0
21/08:30am 18.4 18.4 17.2 93 0.7 ENE 13 20 7 11 1016.7 1016.6 0.0
21/08:00am 18.4 18.0 17.2 93 0.7 ENE 15 24 8 13 1016.5 1016.4 0.0
21/07:55am 18.4 17.6 17.2 93 0.7 NE 17 24 9 13 1016.4 1016.3 0.0
21/07:50am 18.5 17.7 17.2 92 0.8 NE 17 24 9 13 1016.4 1016.3 0.0
21/07:30am 18.7 18.4 17.4 92 0.8 ENE 15 22 8 12 1016.2 1016.1 0.0
21/07:16am 18.8 18.6 17.5 92 0.8 ENE 15 20 8 11 1016.0 1015.8 0.0
21/07:00am 18.8 19.4 17.6 93 0.7 ENE 11 20 6 11 1015.8 1015.6 0.0
21/06:36am 18.6 18.7 17.4 93 0.7 ENE 13 19 7 10 1015.5 1015.3 0.0
21/06:30am 18.6 19.4 17.4 93 0.7 ENE 9 17 5 9 1015.5 1015.3 0.0
21/06:13am 18.6 19.1 17.4 93 0.7 ENE 11 17 6 9 1015.4 1015.2 0.0
21/06:00am 18.6 18.7 17.4 93 0.7 NE 13 19 7 10 1015.3 1015.1 0.0
21/05:38am 18.5 18.5 17.3 93 0.7 ENE 13 20 7 11 1015.1 1014.9 0.0
21/05:30am 18.5 18.5 17.3 93 0.7 ENE 13 19 7 10 1015.1 1014.9 0.0
21/05:17am 18.6 19.1 17.4 93 0.7 ENE 11 15 6 8 1015.1 1014.9 0.0
21/05:00am 18.6 18.7 17.4 93 0.7 ENE 13 20 7 11 1015.1 1014.9 0.0
21/04:36am 18.5 18.6 17.5 94 0.6 ENE 13 19 7 10 1015.0 1014.8 0.0
21/04:30am 18.5 18.6 17.5 94 0.6 NE 13 19 7 10 1015.0 1014.8 0.0
21/04:16am 18.5 18.3 17.5 94 0.6 NE 15 20 8 11 1014.9 1014.7 0.0
21/04:10am 18.5 17.9 17.5 94 0.6 NE 17 20 9 11 1014.9 1014.7 0.0
21/04:00am 18.5 18.3 17.5 94 0.6 NE 15 20 8 11 1015.0 1014.8 0.0
21/03:42am 18.6 18.7 17.4 93 0.7 ENE 13 17 7 9 1015.0 1014.8 0.0
21/03:30am 18.7 18.8 17.5 93 0.7 ENE 13 19 7 10 1015.0 1014.8 0.0
21/03:00am 18.7 18.9 17.7 94 0.6 ENE 13 20 7 11 1015.2 1015.0 0.0
21/02:41am 18.6 18.8 17.6 94 0.6 ENE 13 19 7 10 1015.3 1015.1 0.0
21/02:30am 18.6 18.8 17.6 94 0.6 ENE 13 20 7 11 1015.4 1015.2 0.0
21/02:00am 18.6 18.7 17.4 93 0.7 ENE 13 20 7 11 1015.8 1015.6 0.0
21/01:37am 18.7 19.2 17.5 93 0.7 ENE 11 17 6 9 1016.1 1015.9 0.0
21/01:30am 18.7 19.6 17.5 93 0.7 ENE 9 13 5 7 1016.0 1015.8 0.0
21/01:00am 18.7 18.8 17.5 93 0.7 ENE 13 19 7 10 1016.1 1015.9 0.0
21/12:49am 18.7 19.2 17.5 93 0.7 ENE 11 17 6 9 1016.2 1016.1 0.0
21/12:30am 18.7 19.2 17.5 93 0.7 ENE 11 17 6 9 1016.5 1016.4 0.0
21/12:21am 18.7 19.2 17.4 92 0.8 E 11 17 6 9 1016.5 1016.4 0.0
21/12:14am 18.6 19.0 17.3 92 0.8 E 11 17 6 9 1016.6 1016.5 0.0
21/12:00am 18.6 18.6 17.3 92 0.8 E 13 20 7 11 1016.6 1016.5 0.0
 
Date/Time
EDT
Temp
°C
App
Temp
°C
Dew
Point
°C
Rel
Hum
%
Delta-T
°C
Wind Press
QNH
hPa
Press
MSL
hPa
Rain since
9am
mm
Dir  Spd
km/h
Gust
km/h
Spd
kts
Gust
kts
20/11:49pm 18.7 19.1 17.2 91 0.9 E 11 17 6 9 1016.6 1016.5 0.0
20/11:30pm 18.5 19.2 17.0 91 0.9 ENE 9 17 5 9 1016.8 1016.7 0.0
20/11:00pm 18.1 18.9 16.4 90 1.0 NE 7 11 4 6 1016.8 1016.7 0.0
20/10:55pm 18.1 18.9 16.4 90 1.0 ENE 7 13 4 7 1016.8 1016.7 0.0
20/10:30pm 18.6 19.1 16.6 88 1.2 E 9 15 5 8 1016.7 1016.6 0.0
20/10:00pm 19.0 19.2 16.8 87 1.3 ENE 11 15 6 8 1016.6 1016.5 0.0
20/09:30pm 19.3 19.9 16.7 85 1.6 ENE 9 17 5 9 1016.5 1016.4 0.0
20/09:00pm 19.7 19.5 16.7 83 1.8 ENE 13 20 7 11 1016.4 1016.3 0.0
20/08:30pm 20.3 20.0 16.5 79 2.3 E 13 19 7 10 1016.0 1015.8 0.0
20/08:00pm 21.1 20.7 16.3 74 2.9 E 13 19 7 10 1015.5 1015.3 0.0
20/07:30pm 21.6 20.9 16.3 72 3.2 E 15 20 8 11 1015.4 1015.2 0.0
20/07:00pm 22.4 21.7 16.4 69 3.6 E 15 24 8 13 1015.2 1015.0 0.0
20/06:30pm 23.2 22.2 16.7 67 4.0 E 17 28 9 15 1014.8 1014.6 0.0
20/06:00pm 23.8 22.9 16.8 65 4.3 E 17 26 9 14 1014.5 1014.3 0.0
20/05:30pm 24.3 23.9 17.1 64 4.5 ENE 15 28 8 15 1014.2 1014.0 0.0
20/05:00pm 24.9 24.2 17.4 63 4.7 E 17 24 9 13 1014.0 1013.8 0.0
20/04:30pm 25.9 24.7 17.5 59 5.3 ENE 20 30 11 16 1013.8 1013.6 0.0
20/04:00pm 25.6 24.8 17.0 59 5.3 ENE 17 24 9 13 1013.9 1013.7 0.0
20/03:30pm 26.3 25.8 16.8 56 5.9 E 15 24 8 13 1013.9 1013.7 0.0
20/03:00pm 27.5 27.5 17.1 53 6.5 ENE 13 19 7 10 1014.1 1013.9 0.0
20/02:30pm 26.5 26.0 17.0 56 5.9 NE 15 26 8 14 1014.5 1014.3 0.0
20/02:00pm 24.8 25.4 17.8 65 4.4 ENE 11 19 6 10 1014.9 1014.7 0.0

Other formats

Comma delimited format used in spreadsheet applications
http://www.bom.gov.au/fwo/IDV60801/IDV60801.94891.axf

JavaScript Object Notation format (JSON) in row-major order
http://www.bom.gov.au/fwo/IDV60801/IDV60801.94891.json

Data quality

Most of these data are generated automatically and are frequently updated. Quality checks on data are not normally performed. It is possible for incorrect values to appear. Refer to information at About Latest Weather Observations and please check the disclaimer before using these data.